createdAt,value
2019-02-07T00:00:08.563Z,938.3
2019-02-07T00:01:09.141Z,938.28
2019-02-07T00:02:09.498Z,938.29
2019-02-07T00:03:10.197Z,938.27
2019-02-07T00:04:10.610Z,938.29
2019-02-07T00:05:11.018Z,938.26
2019-02-07T00:06:11.517Z,938.21
2019-02-07T00:07:11.941Z,938.22
2019-02-07T00:08:12.787Z,938.2
2019-02-07T00:09:13.684Z,938.21
2019-02-07T00:10:14.198Z,938.22
2019-02-07T00:11:14.618Z,938.17
2019-02-07T00:12:15.747Z,938.21
2019-02-07T00:13:16.165Z,938.21
2019-02-07T00:14:17.512Z,938.17
2019-02-07T00:15:18.203Z,938.17
2019-02-07T00:16:19.449Z,938.07
2019-02-07T00:17:21.140Z,938.08
2019-02-07T00:18:22.016Z,938.06
2019-02-07T00:19:22.505Z,938.09
2019-02-07T00:20:23.377Z,938.06
2019-02-07T00:21:24.528Z,938.05
2019-02-07T00:22:25.490Z,938.09
2019-02-07T00:23:26.016Z,938.08
2019-02-07T00:24:26.703Z,938.01
2019-02-07T00:25:27.433Z,938
2019-02-07T00:26:28.121Z,937.99
2019-02-07T00:27:28.592Z,937.99
2019-02-07T00:28:29.286Z,937.99
2019-02-07T00:29:29.701Z,937.97
2019-02-07T00:30:30.485Z,937.93
2019-02-07T00:31:31.463Z,937.95
2019-02-07T00:32:31.973Z,938
2019-02-07T00:33:32.951Z,937.98
2019-02-07T00:34:33.941Z,938.04
2019-02-07T00:35:34.948Z,938.02
2019-02-07T00:36:35.360Z,938.02
2019-02-07T00:37:35.776Z,938.04
2019-02-07T00:38:36.018Z,938.02
2019-02-07T00:39:36.716Z,937.99
2019-02-07T00:40:37.817Z,938
2019-02-07T00:41:38.237Z,938
2019-02-07T00:42:38.730Z,937.97
2019-02-07T00:43:39.438Z,938.01
2019-02-07T00:44:52.438Z,938
2019-02-07T00:45:51.675Z,938.06
2019-02-07T00:46:52.814Z,938.02
2019-02-07T00:47:53.502Z,938.02
2019-02-07T00:48:54.247Z,938.04
2019-02-07T00:49:54.659Z,937.96
2019-02-07T00:50:55.185Z,937.99
2019-02-07T00:51:55.874Z,938.03
2019-02-07T00:52:56.614Z,937.96
2019-02-07T00:53:57.411Z,937.93
2019-02-07T00:54:58.762Z,937.94
2019-02-07T00:55:59.720Z,937.98
2019-02-07T00:57:00.715Z,937.97
2019-02-07T00:58:01.427Z,937.98
2019-02-07T00:59:02.168Z,937.99
2019-02-07T01:00:02.864Z,937.92
2019-02-07T01:01:04.008Z,937.98
2019-02-07T01:02:04.815Z,937.91
2019-02-07T01:03:05.343Z,937.91
2019-02-07T01:04:06.499Z,937.96
2019-02-07T01:05:07.020Z,937.94
2019-02-07T01:06:08.128Z,937.99
2019-02-07T01:07:09.377Z,937.97
2019-02-07T01:08:10.069Z,937.98
2019-02-07T01:09:10.774Z,937.94
2019-02-07T01:10:11.194Z,937.93
2019-02-07T01:11:11.889Z,937.88
2019-02-07T01:12:12.154Z,937.85
2019-02-07T01:13:12.644Z,937.89
2019-02-07T01:14:13.618Z,937.92
2019-02-07T01:15:14.888Z,937.88
2019-02-07T01:16:15.707Z,937.89
2019-02-07T01:17:16.691Z,937.89
2019-02-07T01:18:17.394Z,937.89
2019-02-07T01:19:18.634Z,937.87
2019-02-07T01:20:19.152Z,937.87
2019-02-07T01:21:19.863Z,937.85
2019-02-07T01:22:20.838Z,937.89
2019-02-07T01:23:21.532Z,937.85
2019-02-07T01:24:22.498Z,937.86
2019-02-07T01:25:23.648Z,937.81
2019-02-07T01:26:24.039Z,937.78
2019-02-07T01:27:24.729Z,937.82
2019-02-07T01:28:25.746Z,937.81
2019-02-07T01:29:27.044Z,937.79
2019-02-07T01:30:27.871Z,937.75
2019-02-07T01:31:28.844Z,937.73
2019-02-07T01:32:29.275Z,937.75
2019-02-07T01:33:30.249Z,937.7
2019-02-07T01:34:30.655Z,937.7
2019-02-07T01:35:31.363Z,937.72
2019-02-07T01:36:32.572Z,937.63
2019-02-07T01:37:32.946Z,937.65
2019-02-07T01:38:34.091Z,937.67
2019-02-07T01:39:35.075Z,937.66
2019-02-07T01:40:35.771Z,937.59
2019-02-07T01:41:36.195Z,937.56
2019-02-07T01:42:36.618Z,937.56
2019-02-07T01:43:37.754Z,937.57
2019-02-07T01:44:39.044Z,937.54
2019-02-07T01:45:39.861Z,937.47
2019-02-07T01:46:40.901Z,937.44
2019-02-07T01:47:41.598Z,937.5
2019-02-07T01:48:42.287Z,937.51
2019-02-07T01:49:43.081Z,937.42
2019-02-07T01:50:43.775Z,937.43
2019-02-07T01:51:44.194Z,937.41
2019-02-07T01:52:45.412Z,937.39
2019-02-07T01:53:45.926Z,937.42
2019-02-07T01:54:46.890Z,937.38
2019-02-07T01:55:47.301Z,937.4
2019-02-07T01:56:48.177Z,937.34
2019-02-07T01:57:48.610Z,937.31
2019-02-07T01:58:49.027Z,937.35
2019-02-07T01:59:49.461Z,937.29
2019-02-07T02:00:50.157Z,937.28
2019-02-07T02:01:51.176Z,937.24
2019-02-07T02:02:51.600Z,937.24
2019-02-07T02:03:52.400Z,937.21
2019-02-07T02:04:53.093Z,937.26
2019-02-07T02:05:54.083Z,937.22
2019-02-07T02:06:55.155Z,937.22
2019-02-07T02:07:55.576Z,937.25
2019-02-07T02:08:56.296Z,937.19
2019-02-07T02:09:56.835Z,937.13
2019-02-07T02:10:57.508Z,937.13
2019-02-07T02:11:58.409Z,937.12
2019-02-07T02:12:59.821Z,937.1
2019-02-07T02:14:00.980Z,937.1
2019-02-07T02:15:01.960Z,937.13
2019-02-07T02:16:02.662Z,937.11
2019-02-07T02:17:02.878Z,937.01
2019-02-07T02:18:03.614Z,937.06
2019-02-07T02:19:04.279Z,936.96
2019-02-07T02:20:05.334Z,936.87
2019-02-07T02:21:05.757Z,936.89
2019-02-07T02:22:06.725Z,936.9
2019-02-07T02:23:07.428Z,936.9
2019-02-07T02:24:07.845Z,936.89
2019-02-07T02:25:08.989Z,936.86
2019-02-07T02:26:10.130Z,936.84
2019-02-07T02:27:11.101Z,936.85
2019-02-07T02:28:12.528Z,936.8
2019-02-07T02:29:13.668Z,936.77
2019-02-07T02:30:14.650Z,936.77
2019-02-07T02:31:15.517Z,936.76
2019-02-07T02:32:16.528Z,936.75
2019-02-07T02:33:17.638Z,936.75
2019-02-07T02:34:18.580Z,936.73
2019-02-07T02:35:19.843Z,936.72
2019-02-07T02:36:20.987Z,936.66
2019-02-07T02:37:22.021Z,936.66
2019-02-07T02:38:23.001Z,936.65
2019-02-07T02:39:23.987Z,936.69
2019-02-07T02:40:24.291Z,936.57
2019-02-07T02:41:25.304Z,936.56
2019-02-07T02:42:25.913Z,936.62
2019-02-07T02:43:26.700Z,936.67
2019-02-07T02:44:27.203Z,936.56
2019-02-07T02:45:42.217Z,936.48
2019-02-07T02:46:43.646Z,936.52
2019-02-07T02:47:44.625Z,936.58
2019-02-07T02:48:45.369Z,936.52
2019-02-07T02:49:46.060Z,936.52
2019-02-07T02:50:47.378Z,936.46
2019-02-07T02:51:48.526Z,936.53
2019-02-07T02:52:49.226Z,936.53
2019-02-07T02:53:50.545Z,936.47
2019-02-07T02:54:51.836Z,936.5
2019-02-07T02:55:53.365Z,936.55
2019-02-07T02:56:54.190Z,936.57
2019-02-07T02:57:55.158Z,936.45
2019-02-07T02:58:55.857Z,936.41
2019-02-07T02:59:56.576Z,936.39
2019-02-07T03:00:57.590Z,936.46
2019-02-07T03:01:58.557Z,936.44
2019-02-07T03:02:59.977Z,936.42
2019-02-07T03:04:00.251Z,936.37
2019-02-07T03:05:01.601Z,936.41
2019-02-07T03:06:02.343Z,936.37
2019-02-07T03:07:03.465Z,936.33
2019-02-07T03:08:04.717Z,936.3
2019-02-07T03:09:05.285Z,936.32
2019-02-07T03:10:06.449Z,936.35
2019-02-07T03:11:07.183Z,936.33
2019-02-07T03:12:08.186Z,936.29
2019-02-07T03:13:09.157Z,936.29
2019-02-07T03:14:10.273Z,936.28
2019-02-07T03:15:10.863Z,936.34
2019-02-07T03:16:11.286Z,936.29
2019-02-07T03:17:11.464Z,936.35
2019-02-07T03:18:12.471Z,936.28
2019-02-07T03:19:13.174Z,936.3
2019-02-07T03:20:13.892Z,936.31
2019-02-07T03:21:14.308Z,936.24
2019-02-07T03:22:14.959Z,936.3
2019-02-07T03:23:15.601Z,936.28
2019-02-07T03:24:16.420Z,936.29
2019-02-07T03:25:17.122Z,936.29
2019-02-07T03:26:18.265Z,936.25
2019-02-07T03:27:19.261Z,936.3
2019-02-07T03:28:20.247Z,936.26
2019-02-07T03:29:20.669Z,936.25
2019-02-07T03:30:22.095Z,936.24
2019-02-07T03:31:22.933Z,936.26
2019-02-07T03:32:23.702Z,936.24
2019-02-07T03:33:24.548Z,936.25
2019-02-07T03:34:24.990Z,936.22
2019-02-07T03:35:25.273Z,936.17
2019-02-07T03:36:26.257Z,936.19
2019-02-07T03:37:27.122Z,936.16
2019-02-07T03:38:28.267Z,936.15
2019-02-07T03:39:29.019Z,936.16
2019-02-07T03:40:29.991Z,936.15
2019-02-07T03:41:31.025Z,936.16
2019-02-07T03:42:31.448Z,936.11
2019-02-07T03:43:32.600Z,936.16
2019-02-07T03:44:33.314Z,936.11
2019-02-07T03:45:34.016Z,936.16
2019-02-07T03:46:34.854Z,936.14
2019-02-07T03:47:36.025Z,936.09
2019-02-07T03:48:36.451Z,936.08
2019-02-07T03:49:37.369Z,936.04
2019-02-07T03:50:37.841Z,936
2019-02-07T03:51:38.979Z,936
2019-02-07T03:52:40.256Z,935.98
2019-02-07T03:53:40.974Z,935.98
2019-02-07T03:54:41.430Z,935.93
2019-02-07T03:55:41.692Z,935.97
2019-02-07T03:56:42.686Z,935.91
2019-02-07T03:57:43.816Z,935.91
2019-02-07T03:58:44.960Z,935.91
2019-02-07T03:59:45.662Z,935.89
2019-02-07T04:00:46.381Z,935.85
2019-02-07T04:01:46.646Z,935.85
2019-02-07T04:02:47.073Z,935.86
2019-02-07T04:03:48.346Z,935.83
2019-02-07T04:04:49.346Z,935.82
2019-02-07T04:05:50.479Z,935.76
2019-02-07T04:06:51.881Z,935.74
2019-02-07T04:07:52.741Z,935.77
2019-02-07T04:08:53.718Z,935.73
2019-02-07T04:09:54.750Z,935.78
2019-02-07T04:10:55.752Z,935.81
2019-02-07T04:11:56.901Z,935.77
2019-02-07T04:12:57.702Z,935.81
2019-02-07T04:13:58.199Z,935.77
2019-02-07T04:14:58.901Z,935.75
2019-02-07T04:15:59.984Z,935.75
2019-02-07T04:16:15.359Z,935.76
2019-02-07T04:17:13.769Z,935.73
2019-02-07T04:18:14.027Z,935.7
2019-02-07T04:19:14.573Z,935.7
2019-02-07T04:20:15.586Z,935.66
2019-02-07T04:21:16.326Z,935.67
2019-02-07T04:22:17.351Z,935.67
2019-02-07T04:23:17.814Z,935.67
2019-02-07T04:24:19.321Z,935.7
2019-02-07T04:25:19.811Z,935.66
2019-02-07T04:26:21.039Z,935.68
2019-02-07T04:27:21.990Z,935.59
2019-02-07T04:28:22.999Z,935.67
2019-02-07T04:29:23.315Z,935.67
2019-02-07T04:30:23.825Z,935.59
2019-02-07T04:31:25.240Z,935.64
2019-02-07T04:32:26.160Z,935.6
2019-02-07T04:33:27.308Z,935.59
2019-02-07T04:34:28.113Z,935.57
2019-02-07T04:35:28.850Z,935.57
2019-02-07T04:36:29.823Z,935.51
2019-02-07T04:37:30.157Z,935.51
2019-02-07T04:38:31.027Z,935.57
2019-02-07T04:39:32.007Z,935.54
2019-02-07T04:40:33.040Z,935.53
2019-02-07T04:41:33.482Z,935.52
2019-02-07T04:42:34.236Z,935.53
2019-02-07T04:43:35.688Z,935.53
2019-02-07T04:44:36.504Z,935.53
2019-02-07T04:45:37.647Z,935.48
2019-02-07T04:46:38.645Z,935.47
2019-02-07T04:47:39.692Z,935.48
2019-02-07T04:48:40.239Z,935.54
2019-02-07T04:49:41.238Z,935.5
2019-02-07T04:50:41.502Z,935.47
2019-02-07T04:51:43.013Z,935.51
2019-02-07T04:52:43.621Z,935.49
2019-02-07T04:53:44.603Z,935.47
2019-02-07T04:54:45.314Z,935.45
2019-02-07T04:55:46.586Z,935.45
2019-02-07T04:56:46.868Z,935.45
2019-02-07T04:57:48.123Z,935.45
2019-02-07T04:58:49.109Z,935.44
2019-02-07T04:59:50.312Z,935.43
2019-02-07T05:00:51.351Z,935.43
2019-02-07T05:01:52.398Z,935.38
2019-02-07T05:02:53.108Z,935.4
2019-02-07T05:03:53.539Z,935.38
2019-02-07T05:04:54.670Z,935.36
2019-02-07T05:05:55.378Z,935.4
2019-02-07T05:06:56.118Z,935.45
2019-02-07T05:07:56.981Z,935.43
2019-02-07T05:08:58.516Z,935.45
2019-02-07T05:09:58.797Z,935.46
2019-02-07T05:10:59.878Z,935.45
2019-02-07T05:12:00.860Z,935.35
2019-02-07T05:13:02.133Z,935.4
2019-02-07T05:14:02.832Z,935.37
2019-02-07T05:15:03.067Z,935.33
2019-02-07T05:16:03.417Z,935.31
2019-02-07T05:17:04.799Z,935.35
2019-02-07T05:18:05.602Z,935.38
2019-02-07T05:19:06.736Z,935.38
2019-02-07T05:20:07.824Z,935.38
2019-02-07T05:21:08.905Z,935.45
2019-02-07T05:22:09.331Z,935.43
2019-02-07T05:23:10.088Z,935.43
2019-02-07T05:24:11.369Z,935.44
2019-02-07T05:25:12.405Z,935.39
2019-02-07T05:26:13.467Z,935.41
2019-02-07T05:27:14.485Z,935.39
2019-02-07T05:28:15.265Z,935.4
2019-02-07T05:29:16.261Z,935.4
2019-02-07T05:30:17.692Z,935.41
2019-02-07T05:31:18.695Z,935.42
2019-02-07T05:32:19.980Z,935.37
2019-02-07T05:33:20.703Z,935.44
2019-02-07T05:34:21.258Z,935.44
2019-02-07T05:35:21.520Z,935.39
2019-02-07T05:36:22.641Z,935.37
2019-02-07T05:37:23.348Z,935.4
2019-02-07T05:38:24.270Z,935.37
2019-02-07T05:39:24.975Z,935.41
2019-02-07T05:40:25.693Z,935.44
2019-02-07T05:41:26.154Z,935.44
2019-02-07T05:42:27.305Z,935.46
2019-02-07T05:43:28.304Z,935.49
2019-02-07T05:44:29.360Z,935.47
2019-02-07T05:45:29.805Z,935.46
2019-02-07T05:46:30.246Z,935.51
2019-02-07T05:47:30.796Z,935.5
2019-02-07T05:48:31.248Z,935.48
2019-02-07T05:49:31.611Z,935.52
2019-02-07T05:50:32.308Z,935.49
2019-02-07T05:51:33.496Z,935.47
2019-02-07T05:52:34.315Z,935.46
2019-02-07T05:53:34.531Z,935.47
2019-02-07T05:54:35.138Z,935.42
2019-02-07T05:55:35.696Z,935.4
2019-02-07T05:56:36.409Z,935.4
2019-02-07T05:57:37.106Z,935.42
2019-02-07T05:58:37.602Z,935.49
2019-02-07T05:59:38.341Z,935.46
2019-02-07T06:00:40.136Z,935.39
2019-02-07T06:01:40.939Z,935.32
2019-02-07T06:02:41.951Z,935.47
2019-02-07T06:03:42.503Z,935.5
2019-02-07T06:04:43.002Z,935.39
2019-02-07T06:05:43.717Z,935.31
2019-02-07T06:06:44.141Z,935.38
2019-02-07T06:07:44.687Z,935.4
2019-02-07T06:08:45.761Z,935.45
2019-02-07T06:09:49.705Z,935.48
2019-02-07T06:10:49.901Z,935.5
2019-02-07T06:11:50.895Z,935.47
2019-02-07T06:12:51.587Z,935.49
2019-02-07T06:13:52.009Z,935.46
2019-02-07T06:14:52.274Z,935.49
2019-02-07T06:15:52.849Z,935.5
2019-02-07T06:17:05.205Z,935.53
2019-02-07T06:18:05.518Z,935.5
2019-02-07T06:19:06.830Z,935.51
2019-02-07T06:20:07.044Z,935.5
2019-02-07T06:21:07.330Z,935.53
2019-02-07T06:22:08.296Z,935.55
2019-02-07T06:23:09.000Z,935.56
2019-02-07T06:24:09.699Z,935.49
2019-02-07T06:25:10.396Z,935.57
2019-02-07T06:26:11.719Z,935.6
2019-02-07T06:27:11.982Z,935.59
2019-02-07T06:28:12.676Z,935.55
2019-02-07T06:29:13.333Z,935.62
2019-02-07T06:30:14.074Z,935.59
2019-02-07T06:31:14.907Z,935.56
2019-02-07T06:32:15.590Z,935.64
2019-02-07T06:33:16.566Z,935.69
2019-02-07T06:34:30.211Z,935.62
2019-02-07T06:35:31.453Z,935.7
2019-02-07T06:36:31.698Z,935.69
2019-02-07T06:37:32.511Z,935.6
2019-02-07T06:38:33.771Z,935.67
2019-02-07T06:39:34.174Z,935.7
2019-02-07T06:40:34.355Z,935.71
2019-02-07T06:41:35.611Z,935.71
2019-02-07T06:42:36.869Z,935.77
2019-02-07T06:43:37.570Z,935.76
2019-02-07T06:44:38.562Z,935.8
2019-02-07T06:45:39.678Z,935.82
2019-02-07T06:46:41.425Z,935.77
2019-02-07T06:47:41.812Z,935.77
2019-02-07T06:48:42.791Z,935.81
2019-02-07T06:49:43.501Z,935.78
2019-02-07T06:50:44.695Z,935.75
2019-02-07T06:51:44.991Z,935.74
2019-02-07T06:52:45.699Z,935.77
2019-02-07T06:53:46.136Z,935.79
2019-02-07T06:54:47.284Z,935.8
2019-02-07T06:55:48.590Z,935.82
2019-02-07T06:56:48.951Z,935.81
2019-02-07T06:57:50.120Z,935.8
2019-02-07T06:58:50.822Z,935.86
2019-02-07T06:59:51.416Z,935.83
2019-02-07T07:00:52.295Z,935.89
2019-02-07T07:01:53.021Z,935.9
2019-02-07T07:02:54.130Z,935.89
2019-02-07T07:03:54.517Z,935.95
2019-02-07T07:04:55.235Z,935.99
2019-02-07T07:05:55.742Z,935.96
2019-02-07T07:06:56.360Z,935.96
2019-02-07T07:07:56.620Z,935.98
2019-02-07T07:08:57.213Z,936.08
2019-02-07T07:09:58.261Z,936.01
2019-02-07T07:10:59.059Z,935.91
2019-02-07T07:12:00.405Z,935.96
2019-02-07T07:13:01.396Z,936.01
2019-02-07T07:14:02.347Z,935.9
2019-02-07T07:15:03.921Z,935.99
2019-02-07T07:16:04.837Z,935.98
2019-02-07T07:17:05.996Z,936
2019-02-07T07:18:06.987Z,936.08
2019-02-07T07:19:07.974Z,936.04
2019-02-07T07:20:10.746Z,935.94
2019-02-07T07:21:11.922Z,936.11
2019-02-07T07:22:12.849Z,936.09
2019-02-07T07:23:13.849Z,936.05
2019-02-07T07:24:15.134Z,936.09
2019-02-07T07:25:15.863Z,936.16
2019-02-07T07:26:16.100Z,936.23
2019-02-07T07:27:17.929Z,936.01
2019-02-07T07:28:18.615Z,936.16
2019-02-07T07:29:19.147Z,936.14
2019-02-07T07:30:19.954Z,936.27
2019-02-07T07:31:20.613Z,936.05
2019-02-07T07:32:21.634Z,936.17
2019-02-07T07:33:22.533Z,936.12
2019-02-07T07:34:23.019Z,936.06
2019-02-07T07:35:24.127Z,936.17
2019-02-07T07:36:25.274Z,936.18
2019-02-07T07:37:25.984Z,936.21
2019-02-07T07:38:26.716Z,936.24
2019-02-07T07:39:27.722Z,936.13
2019-02-07T07:40:29.148Z,936.27
2019-02-07T07:41:30.333Z,936.22
2019-02-07T07:42:31.761Z,935.99
2019-02-07T07:43:32.377Z,936.27
2019-02-07T07:44:32.800Z,936.36
2019-02-07T07:45:33.503Z,936.23
2019-02-07T07:46:34.507Z,936.15
2019-02-07T07:47:36.557Z,936.36
2019-02-07T07:48:37.267Z,936.12
2019-02-07T07:49:38.299Z,936.13
2019-02-07T07:50:39.448Z,936.3
2019-02-07T07:51:39.889Z,936.23
2019-02-07T07:52:40.364Z,936.19
2019-02-07T07:53:40.640Z,936.15
2019-02-07T07:54:41.340Z,936.16
2019-02-07T07:55:42.462Z,936.3
2019-02-07T07:56:43.366Z,936.11
2019-02-07T07:57:44.065Z,936.15
2019-02-07T07:58:45.225Z,936.15
2019-02-07T07:59:45.765Z,936.2
2019-02-07T08:00:46.258Z,936.1
2019-02-07T08:01:46.463Z,936.15
2019-02-07T08:02:47.199Z,936.17
2019-02-07T08:03:47.998Z,936.13
2019-02-07T08:04:48.992Z,935.98
2019-02-07T08:05:50.162Z,936
2019-02-07T08:06:51.669Z,936.12
2019-02-07T08:07:52.730Z,936.04
2019-02-07T08:08:53.158Z,936.11
2019-02-07T08:09:54.316Z,936.11
2019-02-07T08:10:55.015Z,936.17
2019-02-07T08:11:55.799Z,936.14
2019-02-07T08:12:56.941Z,936
2019-02-07T08:13:57.638Z,936.13
2019-02-07T08:14:58.147Z,936.17
2019-02-07T08:15:59.485Z,936.01
2019-02-07T08:17:00.483Z,936.06
2019-02-07T08:18:01.222Z,936.08
2019-02-07T08:19:01.959Z,936.1
2019-02-07T08:20:03.126Z,936.05
2019-02-07T08:21:04.567Z,936.06
2019-02-07T08:22:05.987Z,936.07
2019-02-07T08:23:06.989Z,936.09
2019-02-07T08:24:07.996Z,935.99
2019-02-07T08:25:08.421Z,936.09
2019-02-07T08:26:09.163Z,936.07
2019-02-07T08:27:10.319Z,935.93
2019-02-07T08:28:10.750Z,936.08
2019-02-07T08:29:11.580Z,936.11
2019-02-07T08:30:12.295Z,936.12
2019-02-07T08:31:12.744Z,936.09
2019-02-07T08:32:14.028Z,936.08
2019-02-07T08:33:15.037Z,936.06
2019-02-07T08:34:15.809Z,936.14
2019-02-07T08:35:16.251Z,936.11
2019-02-07T08:36:16.793Z,936.12
2019-02-07T08:37:17.664Z,936.11
2019-02-07T08:38:18.077Z,936.1
2019-02-07T08:39:18.881Z,936.14
2019-02-07T08:40:20.032Z,936.16
2019-02-07T08:41:20.301Z,936.11
2019-02-07T08:42:21.685Z,936.18
2019-02-07T08:43:24.165Z,936.21
2019-02-07T08:44:24.749Z,936.22
2019-02-07T08:45:25.472Z,936.22
2019-02-07T08:46:26.368Z,936.25
2019-02-07T08:47:27.414Z,936.23
2019-02-07T08:48:28.196Z,936.2
2019-02-07T08:49:28.731Z,936.22
2019-02-07T08:50:29.896Z,936.27
2019-02-07T08:51:30.392Z,936.26
2019-02-07T08:52:30.753Z,936.27
2019-02-07T08:53:31.269Z,936.28
2019-02-07T08:54:32.294Z,936.26
2019-02-07T08:55:35.389Z,936.25
2019-02-07T08:56:35.839Z,936.24
2019-02-07T08:57:36.428Z,936.19
2019-02-07T08:58:37.357Z,936.23
2019-02-07T08:59:39.200Z,936.25
2019-02-07T09:00:39.304Z,936.29
2019-02-07T09:01:39.501Z,936.27
2019-02-07T09:02:40.021Z,936.25
2019-02-07T09:02:52.198Z,936.24
2019-02-07T09:03:53.170Z,936.24
2019-02-07T09:04:53.871Z,936.18
2019-02-07T09:05:55.145Z,936.19
2019-02-07T09:06:56.303Z,936.17
2019-02-07T09:07:57.482Z,936.2
2019-02-07T09:08:58.331Z,936.22
2019-02-07T09:09:59.089Z,936.21
2019-02-07T09:10:59.685Z,936.16
2019-02-07T09:12:01.144Z,936.16
2019-02-07T09:13:01.610Z,936.16
2019-02-07T09:14:02.444Z,936.14
2019-02-07T09:15:03.434Z,936.15
2019-02-07T09:16:03.866Z,936.14
2019-02-07T09:17:04.718Z,936.17
2019-02-07T09:18:13.322Z,936.18
2019-02-07T09:18:16.996Z,936.15
2019-02-07T09:19:18.003Z,936.13
2019-02-07T09:20:18.928Z,936.15
2019-02-07T09:21:19.468Z,936.19
2019-02-07T09:22:20.046Z,936.11
2019-02-07T09:23:20.780Z,936.15
2019-02-07T09:24:21.489Z,936.12
2019-02-07T09:25:21.767Z,936.11
2019-02-07T09:26:22.587Z,936.11
2019-02-07T09:27:23.056Z,936.08
2019-02-07T09:28:24.017Z,936.06
2019-02-07T09:29:25.079Z,936.03
2019-02-07T09:30:25.657Z,936.02
2019-02-07T09:31:25.925Z,935.99
2019-02-07T09:32:26.246Z,935.95
2019-02-07T09:33:27.322Z,936
2019-02-07T09:34:27.701Z,935.98
2019-02-07T09:35:28.397Z,935.99
2019-02-07T09:36:29.133Z,936.01
2019-02-07T09:37:29.820Z,935.95
2019-02-07T09:38:31.107Z,935.95
2019-02-07T09:39:32.071Z,935.95
2019-02-07T09:40:33.069Z,935.97
2019-02-07T09:41:33.511Z,935.96
2019-02-07T09:42:34.032Z,935.91
2019-02-07T09:43:36.050Z,935.93
2019-02-07T09:44:35.752Z,935.94
2019-02-07T09:45:36.487Z,935.94
2019-02-07T09:46:37.950Z,935.88
2019-02-07T09:47:38.989Z,935.9
2019-02-07T09:48:39.472Z,935.9
2019-02-07T09:49:40.445Z,935.88
2019-02-07T09:50:41.475Z,935.9
2019-02-07T09:51:42.916Z,935.9
2019-02-07T09:52:43.175Z,935.88
2019-02-07T09:53:43.598Z,935.88
2019-02-07T09:54:44.920Z,935.89
2019-02-07T09:55:45.251Z,935.89
2019-02-07T09:56:45.645Z,935.94
2019-02-07T09:57:46.645Z,935.96
2019-02-07T09:58:47.431Z,935.91
2019-02-07T09:59:48.215Z,935.96
2019-02-07T10:00:48.921Z,935.94
2019-02-07T10:01:50.007Z,935.92
2019-02-07T10:02:51.015Z,935.9
2019-02-07T10:03:52.340Z,935.99
2019-02-07T10:04:53.329Z,936.04
2019-02-07T10:05:53.836Z,936.03
2019-02-07T10:06:54.553Z,936.03
2019-02-07T10:07:55.547Z,936.03
2019-02-07T10:08:56.305Z,936.03
2019-02-07T10:09:57.747Z,936.05
2019-02-07T10:10:58.091Z,936.08
2019-02-07T10:12:00.213Z,936.08
2019-02-07T10:13:00.522Z,936.08
2019-02-07T10:14:01.523Z,936.07
2019-02-07T10:15:02.247Z,936.09
2019-02-07T10:16:04.453Z,936.11
2019-02-07T10:16:15.599Z,936.12
2019-02-07T10:17:15.880Z,936.11
2019-02-07T10:18:16.356Z,936.13
2019-02-07T10:19:17.067Z,936.1
2019-02-07T10:20:17.502Z,936.11
2019-02-07T10:21:19.863Z,936.11
2019-02-07T10:21:31.234Z,936.09
2019-02-07T10:21:43.646Z,936.1
2019-02-07T10:21:56.641Z,936.06
2019-02-07T10:22:08.445Z,936.08
2019-02-07T10:22:20.637Z,936.08
2019-02-07T10:23:21.308Z,936.06
2019-02-07T10:24:21.846Z,936.02
2019-02-07T10:25:22.387Z,936.01
2019-02-07T10:26:23.384Z,936.02
2019-02-07T10:27:24.560Z,936.01
2019-02-07T10:28:25.556Z,936
2019-02-07T10:29:26.569Z,935.98
2019-02-07T10:30:27.376Z,935.96
2019-02-07T10:31:28.719Z,936.02
2019-02-07T10:32:29.411Z,935.99
2019-02-07T10:33:30.115Z,935.96
2019-02-07T10:34:30.956Z,935.93
2019-02-07T10:35:32.929Z,935.93
2019-02-07T10:35:43.360Z,935.96
2019-02-07T10:36:44.748Z,935.93
2019-02-07T10:37:44.426Z,935.91
2019-02-07T10:38:45.857Z,935.93
2019-02-07T10:39:47.310Z,935.92
2019-02-07T10:40:47.968Z,935.89
2019-02-07T10:41:48.618Z,935.91
2019-02-07T10:42:49.113Z,935.95
2019-02-07T10:43:50.105Z,935.86
2019-02-07T10:44:50.548Z,935.87
2019-02-07T10:45:50.982Z,935.83
2019-02-07T10:46:51.595Z,935.84
2019-02-07T10:47:52.317Z,935.82
2019-02-07T10:48:53.315Z,935.78
2019-02-07T10:49:59.810Z,935.8
2019-02-07T10:50:08.528Z,935.79
2019-02-07T10:51:08.968Z,935.76
2019-02-07T10:52:09.651Z,935.75
2019-02-07T10:53:10.778Z,935.76
2019-02-07T10:54:11.926Z,935.77
2019-02-07T10:55:12.352Z,935.76
2019-02-07T10:56:13.333Z,935.8
2019-02-07T10:57:15.497Z,935.77
2019-02-07T10:58:16.289Z,935.77
2019-02-07T10:59:17.728Z,935.75
2019-02-07T11:00:17.726Z,935.72
2019-02-07T11:01:18.928Z,935.69
2019-02-07T11:02:20.034Z,935.66
2019-02-07T11:03:20.802Z,935.68
2019-02-07T11:04:22.085Z,935.71
2019-02-07T11:05:22.645Z,935.66
2019-02-07T11:06:22.852Z,935.71
2019-02-07T11:07:24.944Z,935.67
2019-02-07T11:08:25.591Z,935.72
2019-02-07T11:09:28.145Z,935.7
2019-02-07T11:10:29.108Z,935.71
2019-02-07T11:11:29.914Z,935.65
2019-02-07T11:12:30.428Z,935.62
2019-02-07T11:13:30.877Z,935.58
2019-02-07T11:14:31.864Z,935.59
2019-02-07T11:15:32.601Z,935.59
2019-02-07T11:16:32.870Z,935.6
2019-02-07T11:17:33.877Z,935.6
2019-02-07T11:18:36.289Z,935.59
2019-02-07T11:19:37.537Z,935.57
2019-02-07T11:19:49.650Z,935.57
2019-02-07T11:20:49.759Z,935.55
2019-02-07T11:21:50.564Z,935.54
2019-02-07T11:22:51.691Z,935.56
2019-02-07T11:23:52.841Z,935.59
2019-02-07T11:24:54.596Z,935.63
2019-02-07T11:25:55.595Z,935.58
2019-02-07T11:26:57.573Z,935.54
2019-02-07T11:27:57.841Z,935.6
2019-02-07T11:28:11.900Z,935.64
2019-02-07T11:29:12.711Z,935.6
2019-02-07T11:30:13.889Z,935.6
2019-02-07T11:31:14.482Z,935.56
2019-02-07T11:32:15.948Z,935.62
2019-02-07T11:33:16.830Z,935.64
2019-02-07T11:34:17.333Z,935.6
2019-02-07T11:35:18.100Z,935.54
2019-02-07T11:36:19.397Z,935.56
2019-02-07T11:37:20.394Z,935.64
2019-02-07T11:38:21.250Z,935.53
2019-02-07T11:39:21.544Z,935.51
2019-02-07T11:40:22.560Z,935.53
2019-02-07T11:41:23.879Z,935.55
2019-02-07T11:42:24.655Z,935.51
2019-02-07T11:43:25.374Z,935.49
2019-02-07T11:44:26.106Z,935.47
2019-02-07T11:45:26.565Z,935.46
2019-02-07T11:46:26.776Z,935.47
2019-02-07T11:47:27.941Z,935.49
2019-02-07T11:48:28.208Z,935.48
2019-02-07T11:49:12.556Z,935.49
2019-02-07T11:50:13.739Z,935.43
2019-02-07T11:51:14.781Z,935.48
2019-02-07T11:52:15.764Z,935.48
2019-02-07T11:53:15.951Z,935.44
2019-02-07T11:54:16.545Z,935.39
2019-02-07T11:55:17.826Z,935.39
2019-02-07T11:56:20.426Z,935.34
2019-02-07T11:56:31.219Z,935.33
2019-02-07T11:57:33.149Z,935.31
2019-02-07T11:57:44.448Z,935.29
2019-02-07T11:58:45.371Z,935.29
2019-02-07T11:59:46.929Z,935.31
2019-02-07T11:59:59.356Z,935.31
2019-02-07T12:00:12.590Z,935.34
2019-02-07T12:00:25.270Z,935.32
2019-02-07T12:00:37.672Z,935.3
2019-02-07T12:01:37.970Z,935.3
2019-02-07T12:02:38.411Z,935.25
2019-02-07T12:03:38.850Z,935.24
2019-02-07T12:04:40.048Z,935.26
2019-02-07T12:05:40.323Z,935.23
2019-02-07T12:06:41.565Z,935.29
2019-02-07T12:07:41.943Z,935.25
2019-02-07T12:08:42.608Z,935.21
2019-02-07T12:09:42.936Z,935.22
2019-02-07T12:10:43.503Z,935.16
2019-02-07T12:11:43.711Z,935.18
2019-02-07T12:12:44.484Z,935.29
2019-02-07T12:13:44.756Z,935.27
2019-02-07T12:14:45.474Z,935.24
2019-02-07T12:15:46.646Z,935.2
2019-02-07T12:16:47.446Z,935.18
2019-02-07T12:17:47.737Z,935.17
2019-02-07T12:18:47.970Z,935.19
2019-02-07T12:19:48.407Z,935.18
2019-02-07T12:20:48.620Z,935.14
2019-02-07T12:21:49.520Z,935.07
2019-02-07T12:22:50.678Z,935.04
2019-02-07T12:23:51.662Z,935.05
2019-02-07T12:24:51.967Z,935.09
2019-02-07T12:25:52.587Z,935.04
2019-02-07T12:26:53.031Z,935.02